createdAt,value
2023-04-27T00:01:32.880Z,18.19
2023-04-27T00:04:35.157Z,18.19
2023-04-27T00:07:37.487Z,18.18
2023-04-27T00:10:39.580Z,18.17
2023-04-27T00:13:41.700Z,18.17
2023-04-27T00:16:43.923Z,18.15
2023-04-27T00:19:47.575Z,18.15
2023-04-27T00:22:49.835Z,18.14
2023-04-27T00:25:51.935Z,18.13
2023-04-27T00:28:54.033Z,18.12
2023-04-27T00:31:56.201Z,18.12
2023-04-27T00:34:58.283Z,18.12
2023-04-27T00:38:00.444Z,18.11
2023-04-27T00:41:03.835Z,18.10
2023-04-27T00:44:06.382Z,18.08
2023-04-27T00:47:09.161Z,18.10
2023-04-27T00:50:12.142Z,18.07
2023-04-27T00:53:15.116Z,18.06
2023-04-27T00:56:17.296Z,18.05
2023-04-27T00:59:20.369Z,18.04
2023-04-27T01:02:23.053Z,18.03
2023-04-27T01:05:26.127Z,18.04
2023-04-27T01:08:29.360Z,18.03
2023-04-27T01:11:32.426Z,17.98
2023-04-27T01:14:36.143Z,17.99
2023-04-27T01:17:38.318Z,17.98
2023-04-27T01:20:42.264Z,17.96
2023-04-27T01:23:44.709Z,17.97
2023-04-27T01:26:46.878Z,17.98
2023-04-27T01:29:49.131Z,17.96
2023-04-27T01:32:51.298Z,17.94
2023-04-27T01:35:53.497Z,17.93
2023-04-27T01:38:55.726Z,17.93
2023-04-27T01:41:58.597Z,17.91
2023-04-27T01:45:01.055Z,17.91
2023-04-27T01:48:03.695Z,17.91
2023-04-27T01:51:06.458Z,17.90
2023-04-27T01:54:08.565Z,17.89
2023-04-27T01:57:10.888Z,17.89
2023-04-27T02:00:13.649Z,17.88
2023-04-27T02:03:15.893Z,17.87
2023-04-27T02:06:18.247Z,17.88
2023-04-27T02:09:20.375Z,17.85
2023-04-27T02:12:22.465Z,17.85
2023-04-27T02:15:24.602Z,17.84
2023-04-27T02:18:27.828Z,17.83
2023-04-27T02:21:30.337Z,17.83
2023-04-27T02:24:32.434Z,17.81
2023-04-27T02:27:36.801Z,17.81
2023-04-27T02:30:39.465Z,17.80
2023-04-27T02:33:42.199Z,17.81
2023-04-27T02:36:44.339Z,17.80
2023-04-27T02:39:47.284Z,17.78
2023-04-27T02:42:49.547Z,17.78
2023-04-27T02:45:51.658Z,17.77
2023-04-27T02:48:53.783Z,17.76
2023-04-27T02:51:57.185Z,17.76
2023-04-27T02:54:59.295Z,17.76
2023-04-27T02:58:01.659Z,17.74
2023-04-27T03:01:03.903Z,17.75
2023-04-27T03:04:06.412Z,17.72
2023-04-27T03:07:08.719Z,17.72
2023-04-27T03:10:11.232Z,17.70
2023-04-27T03:13:15.184Z,17.69
2023-04-27T03:16:17.288Z,17.69
2023-04-27T03:19:19.473Z,17.69
2023-04-27T03:22:21.706Z,17.69
2023-04-27T03:25:23.843Z,17.66
2023-04-27T03:28:26.029Z,17.66
2023-04-27T03:31:28.210Z,17.67
2023-04-27T03:34:31.020Z,17.65
2023-04-27T03:37:34.248Z,17.82
2023-04-27T03:40:36.422Z,17.98
2023-04-27T03:43:38.566Z,18.11
2023-04-27T03:46:41.023Z,18.19
2023-04-27T03:49:43.107Z,18.25
2023-04-27T03:52:45.269Z,18.26
2023-04-27T03:55:47.787Z,18.30
2023-04-27T03:58:49.924Z,18.38
2023-04-27T04:01:52.041Z,18.43
2023-04-27T04:04:54.331Z,18.48
2023-04-27T04:07:57.577Z,18.56
2023-04-27T04:11:00.179Z,18.62
2023-04-27T04:14:02.363Z,18.65
2023-04-27T04:17:04.515Z,18.65
2023-04-27T04:20:10.815Z,18.65
2023-04-27T04:23:13.121Z,18.65
2023-04-27T04:26:15.463Z,18.64
2023-04-27T04:29:18.115Z,18.68
2023-04-27T04:32:20.300Z,18.68
2023-04-27T04:35:22.451Z,18.68
2023-04-27T04:38:24.610Z,18.70
2023-04-27T04:41:26.853Z,18.69
2023-04-27T04:44:29.069Z,18.70
2023-04-27T04:47:32.240Z,18.70
2023-04-27T04:50:34.703Z,18.69
2023-04-27T04:53:37.149Z,18.71
2023-04-27T04:56:39.304Z,18.72
2023-04-27T04:59:42.278Z,18.76
2023-04-27T05:02:44.645Z,18.86
2023-04-27T05:05:48.523Z,18.95
2023-04-27T05:08:50.694Z,18.99
2023-04-27T05:11:52.827Z,18.98
2023-04-27T05:14:54.993Z,18.98
2023-04-27T05:17:57.161Z,18.96
2023-04-27T05:20:59.395Z,18.96
2023-04-27T05:24:01.544Z,18.97
2023-04-27T05:27:03.870Z,19.05
2023-04-27T05:30:06.550Z,18.98
2023-04-27T05:33:08.737Z,18.97
2023-04-27T05:36:10.953Z,18.98
2023-04-27T05:39:13.938Z,18.95
2023-04-27T05:42:16.198Z,18.94
2023-04-27T05:45:18.748Z,18.93
2023-04-27T05:48:21.127Z,18.94
2023-04-27T05:51:23.274Z,18.92
2023-04-27T05:54:25.729Z,18.91
2023-04-27T05:57:28.062Z,18.95
2023-04-27T06:00:30.404Z,19.02
2023-04-27T06:03:33.157Z,19.11
2023-04-27T06:06:35.595Z,19.20
2023-04-27T06:09:38.423Z,19.18
2023-04-27T06:12:40.491Z,19.14
2023-04-27T06:15:42.651Z,19.11
2023-04-27T06:18:44.785Z,19.16
2023-04-27T06:21:46.988Z,19.22
2023-04-27T06:24:49.046Z,19.20
2023-04-27T06:27:51.818Z,19.21
2023-04-27T06:30:55.015Z,19.22
2023-04-27T06:33:57.297Z,19.21
2023-04-27T06:36:59.484Z,19.14
2023-04-27T06:40:01.715Z,19.11
2023-04-27T06:43:04.042Z,19.11
2023-04-27T06:46:06.286Z,19.14
2023-04-27T06:49:08.445Z,19.21
2023-04-27T06:52:10.726Z,19.27
2023-04-27T06:55:12.868Z,19.40
2023-04-27T06:58:15.086Z,19.44
2023-04-27T07:01:17.294Z,19.48
2023-04-27T07:04:19.548Z,19.51
2023-04-27T07:07:22.050Z,19.50
2023-04-27T07:10:24.266Z,19.47
2023-04-27T07:13:26.400Z,19.45
2023-04-27T07:16:28.541Z,19.43
2023-04-27T07:19:30.816Z,19.43
2023-04-27T07:22:33.775Z,19.37
2023-04-27T07:25:35.977Z,19.33
2023-04-27T07:28:39.164Z,19.32
2023-04-27T07:31:41.323Z,19.38
2023-04-27T07:34:52.852Z,19.37
2023-04-27T07:37:56.736Z,19.37
2023-04-27T07:41:01.814Z,19.41
2023-04-27T07:44:03.967Z,19.48
2023-04-27T07:47:06.154Z,19.55
2023-04-27T07:50:08.861Z,19.56
2023-04-27T07:53:11.464Z,19.57
2023-04-27T07:56:13.651Z,19.55
2023-04-27T07:59:16.092Z,19.53
2023-04-27T08:02:20.325Z,19.51
2023-04-27T08:05:23.081Z,19.53
2023-04-27T08:08:25.685Z,19.45
2023-04-27T08:11:27.824Z,19.47
2023-04-27T08:14:30.003Z,19.47
2023-04-27T08:17:32.157Z,19.53
2023-04-27T08:20:34.481Z,19.58
2023-04-27T08:23:38.664Z,19.65
2023-04-27T08:26:41.864Z,19.70
2023-04-27T08:29:50.575Z,19.76
2023-04-27T08:32:54.643Z,19.77
2023-04-27T08:35:56.944Z,19.75
2023-04-27T08:38:59.112Z,19.77
2023-04-27T08:42:01.232Z,19.82
2023-04-27T08:45:07.339Z,19.85
2023-04-27T08:48:09.481Z,19.87
2023-04-27T08:51:14.727Z,19.90
2023-04-27T08:54:16.816Z,19.89
2023-04-27T08:57:18.961Z,19.95
2023-04-27T09:00:21.585Z,19.98
2023-04-27T09:03:27.079Z,20.02
2023-04-27T09:06:31.717Z,20.06
2023-04-27T09:09:34.078Z,20.15
2023-04-27T09:12:36.309Z,20.20
2023-04-27T09:15:48.826Z,20.28
2023-04-27T09:18:51.341Z,20.33
2023-04-27T09:22:07.752Z,20.34
2023-04-27T09:25:09.938Z,20.35
2023-04-27T09:28:15.094Z,20.39
2023-04-27T09:31:17.587Z,20.39
2023-04-27T09:34:19.868Z,20.37
2023-04-27T09:37:23.053Z,20.36
2023-04-27T09:40:32.095Z,20.36
2023-04-27T09:43:34.545Z,20.39
2023-04-27T09:46:36.972Z,20.42
2023-04-27T09:49:39.121Z,20.44
2023-04-27T09:52:41.699Z,20.27
2023-04-27T09:56:20.910Z,20.39
2023-04-27T09:59:32.276Z,20.42
2023-04-27T10:03:01.761Z,20.41
2023-04-27T10:06:35.844Z,19.83
2023-04-27T10:09:41.852Z,20.12
2023-04-27T10:12:44.217Z,20.24
2023-04-27T10:15:46.359Z,20.20
2023-04-27T10:18:57.609Z,19.57
2023-04-27T10:22:05.314Z,19.61
2023-04-27T10:25:29.449Z,19.80
2023-04-27T10:28:40.137Z,20.02
2023-04-27T10:31:48.623Z,20.20
2023-04-27T10:34:52.622Z,20.22
2023-04-27T10:38:06.306Z,20.19
2023-04-27T10:41:14.626Z,20.25
2023-04-27T10:44:24.978Z,20.28
2023-04-27T10:47:39.358Z,20.24
2023-04-27T10:50:42.769Z,20.22
2023-04-27T10:53:45.149Z,20.18
2023-04-27T10:56:47.343Z,20.14
2023-04-27T10:59:55.445Z,20.19
2023-04-27T11:03:10.377Z,20.22
2023-04-27T11:06:12.817Z,20.26
2023-04-27T11:09:25.208Z,20.04
2023-04-27T11:12:27.545Z,20.13
2023-04-27T11:15:29.846Z,20.20
2023-04-27T11:18:35.967Z,20.32
2023-04-27T11:21:38.410Z,20.32
2023-04-27T11:24:50.978Z,20.43
2023-04-27T11:27:53.134Z,20.47
2023-04-27T11:30:59.459Z,20.53
2023-04-27T11:34:01.566Z,20.56
2023-04-27T11:40:14.174Z,20.65
2023-04-27T11:43:16.757Z,20.68
2023-04-27T11:46:22.476Z,20.76
2023-04-27T11:49:26.294Z,20.78
2023-04-27T11:52:32.721Z,20.85
2023-04-27T11:55:38.491Z,20.84
2023-04-27T11:58:40.824Z,20.77
2023-04-27T12:01:42.913Z,20.74
2023-04-27T12:04:45.165Z,20.70
2023-04-27T12:07:47.649Z,20.63
2023-04-27T12:10:49.923Z,20.58
2023-04-27T12:13:52.496Z,20.58
2023-04-27T12:16:54.597Z,20.54
2023-04-27T12:19:56.779Z,20.57
2023-04-27T12:22:58.958Z,20.60
2023-04-27T12:26:01.375Z,20.63
2023-04-27T12:29:04.223Z,20.65
2023-04-27T12:32:06.661Z,20.32
2023-04-27T12:35:10.429Z,20.36
2023-04-27T12:38:12.529Z,20.18
2023-04-27T12:41:14.696Z,20.40
2023-04-27T12:44:19.077Z,20.53
2023-04-27T12:47:46.007Z,20.78
2023-04-27T12:50:44.654Z,20.36
2023-04-27T12:53:47.182Z,21.03
2023-04-27T12:56:49.364Z,20.81
2023-04-27T12:59:51.551Z,20.73
2023-04-27T13:02:53.990Z,20.99
2023-04-27T13:05:56.299Z,20.17
2023-04-27T13:08:59.232Z,20.27
2023-04-27T13:12:01.878Z,20.87
2023-04-27T13:15:04.368Z,20.51
2023-04-27T13:18:06.657Z,20.81
2023-04-27T13:21:09.051Z,20.80
2023-04-27T13:24:12.282Z,20.17
2023-04-27T13:27:14.537Z,20.70
2023-04-27T13:30:17.037Z,20.55
2023-04-27T13:33:23.039Z,20.79
2023-04-27T13:36:26.100Z,21.05
2023-04-27T13:39:28.765Z,21.05
2023-04-27T13:42:31.028Z,21.08
2023-04-27T13:45:33.252Z,20.81
2023-04-27T13:48:35.467Z,20.73
2023-04-27T13:51:37.695Z,20.83
2023-04-27T13:54:39.828Z,20.93
2023-04-27T13:57:41.946Z,21.06
2023-04-27T14:00:44.127Z,20.93
2023-04-27T14:03:46.396Z,21.03
2023-04-27T14:06:48.869Z,21.03
2023-04-27T14:09:51.103Z,20.99
2023-04-27T14:12:53.316Z,20.91
2023-04-27T14:15:55.539Z,20.85
2023-04-27T14:18:57.675Z,20.91
2023-04-27T14:22:00.125Z,21.00
2023-04-27T14:25:02.294Z,20.93
2023-04-27T14:28:05.576Z,20.96
2023-04-27T14:31:07.931Z,20.94
2023-04-27T14:34:10.894Z,20.94
2023-04-27T14:37:13.163Z,20.71
2023-04-27T14:40:15.465Z,20.59
2023-04-27T14:43:18.004Z,20.56
2023-04-27T14:46:21.465Z,20.53
2023-04-27T14:49:24.214Z,20.61
2023-04-27T14:52:27.174Z,20.68
2023-04-27T14:55:29.534Z,20.78
2023-04-27T14:58:34.441Z,20.94
2023-04-27T15:01:37.067Z,20.93
2023-04-27T15:04:40.042Z,20.90
2023-04-27T15:07:42.232Z,20.80
2023-04-27T15:10:44.351Z,20.94
2023-04-27T15:13:46.890Z,21.08
2023-04-27T15:16:49.824Z,21.13
2023-04-27T15:19:52.120Z,20.85
2023-04-27T15:22:54.239Z,20.78
2023-04-27T15:25:58.146Z,20.93
2023-04-27T15:29:00.779Z,21.03
2023-04-27T15:32:03.175Z,21.18
2023-04-27T15:35:06.049Z,21.48
2023-04-27T15:38:10.065Z,21.40
2023-04-27T15:41:12.249Z,21.45
2023-04-27T15:44:14.473Z,21.42
2023-04-27T15:47:16.763Z,21.37
2023-04-27T15:50:18.970Z,21.29
2023-04-27T15:53:21.096Z,21.20
2023-04-27T15:56:23.272Z,21.06
2023-04-27T15:59:26.516Z,21.15
2023-04-27T16:02:29.077Z,21.10
2023-04-27T16:05:31.713Z,21.06
2023-04-27T16:08:33.868Z,21.03
2023-04-27T16:11:36.044Z,21.20
2023-04-27T16:14:38.779Z,21.24
2023-04-27T16:17:41.100Z,21.31
2023-04-27T16:20:43.337Z,21.34
2023-04-27T16:23:45.533Z,21.32
2023-04-27T16:26:49.324Z,21.28
2023-04-27T16:29:51.768Z,21.15
2023-04-27T16:32:54.122Z,21.07
2023-04-27T16:35:57.341Z,21.05
2023-04-27T16:39:05.085Z,21.02
2023-04-27T16:42:07.448Z,20.99
2023-04-27T16:45:11.089Z,20.96
2023-04-27T16:48:13.404Z,20.98
2023-04-27T16:51:15.894Z,20.93
2023-04-27T16:54:18.386Z,20.90
2023-04-27T16:57:20.564Z,20.85
2023-04-27T17:00:22.729Z,20.79
2023-04-27T17:03:26.062Z,20.75
2023-04-27T17:06:28.349Z,20.71
2023-04-27T17:09:30.537Z,20.68
2023-04-27T17:12:32.865Z,20.64
2023-04-27T17:15:35.040Z,20.61
2023-04-27T17:18:37.791Z,20.59
2023-04-27T17:21:39.965Z,20.57
2023-04-27T17:24:42.113Z,20.54
2023-04-27T17:27:44.347Z,20.51
2023-04-27T17:30:46.475Z,20.48
2023-04-27T17:33:49.346Z,20.47
2023-04-27T17:36:51.499Z,20.45
2023-04-27T17:39:54.624Z,20.42
2023-04-27T17:42:57.888Z,20.39
2023-04-27T17:46:00.116Z,20.36
2023-04-27T17:49:02.244Z,20.34
2023-04-27T17:52:04.676Z,20.33
2023-04-27T17:55:07.185Z,20.32
2023-04-27T17:58:11.125Z,20.29
2023-04-27T18:01:13.756Z,20.27
2023-04-27T18:04:16.016Z,20.27
2023-04-27T18:07:19.319Z,20.25
2023-04-27T18:10:21.579Z,20.21
2023-04-27T18:13:23.786Z,20.21
2023-04-27T18:16:26.047Z,20.17
2023-04-27T18:19:28.450Z,20.17
2023-04-27T18:22:30.741Z,20.17
2023-04-27T18:25:32.905Z,20.15
2023-04-27T18:28:35.073Z,20.11
2023-04-27T18:31:37.985Z,20.13
2023-04-27T18:34:40.338Z,20.11
2023-04-27T18:37:42.559Z,20.11
2023-04-27T18:40:44.747Z,20.10
2023-04-27T18:43:46.870Z,20.07
2023-04-27T18:46:49.033Z,20.06
2023-04-27T18:49:51.318Z,20.04
2023-04-27T18:52:53.479Z,20.04
2023-04-27T18:55:55.809Z,20.02
2023-04-27T18:58:59.458Z,20.01
2023-04-27T19:02:01.747Z,19.99
2023-04-27T19:05:13.092Z,19.99
2023-04-27T19:08:15.634Z,19.98
2023-04-27T19:11:22.149Z,19.97
2023-04-27T19:14:24.922Z,19.95
2023-04-27T19:17:27.278Z,19.94
2023-04-27T19:20:29.656Z,19.91
2023-04-27T19:23:32.029Z,19.92
2023-04-27T19:26:34.251Z,19.90
2023-04-27T19:29:50.148Z,19.88
2023-04-27T19:32:52.341Z,19.90
2023-04-27T19:35:54.630Z,19.87
2023-04-27T19:38:57.261Z,19.84
2023-04-27T19:41:59.415Z,19.83
2023-04-27T19:45:01.775Z,19.83
2023-04-27T19:48:04.130Z,19.82
2023-04-27T19:51:09.182Z,19.82
2023-04-27T19:54:11.325Z,19.81
2023-04-27T19:57:13.453Z,19.79
2023-04-27T20:00:15.828Z,19.77
2023-04-27T20:03:18.093Z,19.76
2023-04-27T20:06:21.614Z,19.75
2023-04-27T20:09:23.809Z,19.74
2023-04-27T20:12:47.320Z,19.72
2023-04-27T20:15:48.755Z,19.71
2023-04-27T20:18:51.787Z,19.70
2023-04-27T20:21:54.029Z,19.71
2023-04-27T20:24:59.257Z,19.67
2023-04-27T20:28:01.537Z,19.68
2023-04-27T20:31:03.980Z,19.70
2023-04-27T20:34:06.179Z,19.72
2023-04-27T20:37:09.674Z,19.74
2023-04-27T20:40:16.677Z,19.76
2023-04-27T20:43:19.425Z,19.75
2023-04-27T20:46:21.874Z,19.72
2023-04-27T20:49:34.364Z,19.69
2023-04-27T20:52:37.803Z,19.67
2023-04-27T20:55:40.009Z,19.63
2023-04-27T20:58:42.140Z,19.63
2023-04-27T21:01:44.321Z,19.61
2023-04-27T21:04:46.851Z,19.60
2023-04-27T21:07:48.985Z,19.61
2023-04-27T21:10:51.462Z,19.59
2023-04-27T21:13:53.644Z,19.57
2023-04-27T21:16:56.086Z,19.57
2023-04-27T21:19:58.369Z,19.55
2023-04-27T21:23:00.620Z,19.55
2023-04-27T21:26:02.819Z,19.55
2023-04-27T21:29:06.070Z,19.53
2023-04-27T21:32:08.297Z,19.52
2023-04-27T21:35:10.737Z,19.52
2023-04-27T21:38:12.925Z,19.53
2023-04-27T21:41:16.648Z,19.52
2023-04-27T21:44:18.803Z,19.50
2023-04-27T21:47:21.014Z,19.47
2023-04-27T21:50:23.687Z,19.48
2023-04-27T21:53:26.316Z,19.47
2023-04-27T21:56:28.695Z,19.48
2023-04-27T21:59:30.929Z,19.47
2023-04-27T22:02:33.216Z,19.45
2023-04-27T22:05:37.317Z,19.43
2023-04-27T22:08:39.504Z,19.45
2023-04-27T22:11:41.752Z,19.44
2023-04-27T22:14:43.939Z,19.43
2023-04-27T22:17:46.161Z,19.41
2023-04-27T22:20:49.422Z,19.41
2023-04-27T22:23:51.572Z,19.39
2023-04-27T22:26:53.834Z,19.40
2023-04-27T22:29:56.108Z,19.39
2023-04-27T22:32:58.362Z,19.39
2023-04-27T22:36:00.589Z,19.38
2023-04-27T22:39:02.920Z,19.37
2023-04-27T22:42:05.122Z,19.37
2023-04-27T22:45:07.951Z,19.33
2023-04-27T22:48:10.191Z,19.33
2023-04-27T22:51:12.467Z,19.33
2023-04-27T22:54:15.224Z,19.32
2023-04-27T22:57:17.556Z,19.31
2023-04-27T23:00:20.457Z,19.31
2023-04-27T23:03:22.852Z,19.31
2023-04-27T23:06:25.093Z,19.29
2023-04-27T23:09:27.736Z,19.28
2023-04-27T23:12:30.775Z,19.28
2023-04-27T23:15:33.002Z,19.26
2023-04-27T23:18:35.201Z,19.28
2023-04-27T23:21:37.346Z,19.26
2023-04-27T23:24:39.459Z,19.26
2023-04-27T23:27:41.663Z,19.27
2023-04-27T23:30:43.867Z,19.24
2023-04-27T23:33:46.098Z,19.24
2023-04-27T23:36:48.241Z,19.23
2023-04-27T23:39:51.557Z,19.24
2023-04-27T23:42:53.696Z,19.22
2023-04-27T23:45:55.974Z,19.20
2023-04-27T23:48:58.112Z,19.21
2023-04-27T23:52:00.281Z,19.20
2023-04-27T23:55:02.417Z,19.17
2023-04-27T23:58:04.687Z,19.17
